sensor_id;sensor_type;location;lat;lon;timestamp;P1;durP1;ratioP1;P2;durP2;ratioP2
59424;SDS011;45231;44.826;20.312;2023-02-23T00:02:04;62.30;;;39.40;;
59424;SDS011;45231;44.826;20.312;2023-02-23T00:04:30;54.80;;;36.38;;
59424;SDS011;45231;44.826;20.312;2023-02-23T00:06:57;53.65;;;36.28;;
59424;SDS011;45231;44.826;20.312;2023-02-23T00:09:24;53.60;;;35.47;;
59424;SDS011;45231;44.826;20.312;2023-02-23T00:11:51;60.67;;;37.97;;
59424;SDS011;45231;44.826;20.312;2023-02-23T00:14:17;59.38;;;37.08;;
59424;SDS011;45231;44.826;20.312;2023-02-23T00:16:44;60.00;;;37.17;;
59424;SDS011;45231;44.826;20.312;2023-02-23T00:19:10;59.57;;;38.90;;
59424;SDS011;45231;44.826;20.312;2023-02-23T00:21:38;69.15;;;42.88;;
59424;SDS011;45231;44.826;20.312;2023-02-23T00:24:11;72.70;;;46.33;;
59424;SDS011;45231;44.826;20.312;2023-02-23T00:26:39;82.03;;;48.47;;
59424;SDS011;45231;44.826;20.312;2023-02-23T00:29:11;79.65;;;47.38;;
59424;SDS011;45231;44.826;20.312;2023-02-23T00:31:41;78.05;;;47.90;;
59424;SDS011;45231;44.826;20.312;2023-02-23T00:34:09;79.72;;;50.25;;
59424;SDS011;45231;44.826;20.312;2023-02-23T00:36:35;84.32;;;51.17;;
59424;SDS011;45231;44.826;20.312;2023-02-23T00:39:04;98.95;;;59.50;;
59424;SDS011;45231;44.826;20.312;2023-02-23T00:41:41;98.97;;;64.80;;
59424;SDS011;45231;44.826;20.312;2023-02-23T00:44:07;96.32;;;61.97;;
59424;SDS011;45231;44.826;20.312;2023-02-23T00:46:33;76.88;;;50.95;;
59424;SDS011;45231;44.826;20.312;2023-02-23T00:48:59;99.23;;;59.73;;
59424;SDS011;45231;44.826;20.312;2023-02-23T00:51:26;94.50;;;60.33;;
59424;SDS011;45231;44.826;20.312;2023-02-23T00:53:59;92.80;;;57.75;;
59424;SDS011;45231;44.826;20.312;2023-02-23T00:56:25;89.85;;;57.08;;
59424;SDS011;45231;44.826;20.312;2023-02-23T01:01:18;90.13;;;55.92;;
59424;SDS011;45231;44.826;20.312;2023-02-23T01:03:44;85.18;;;54.45;;
59424;SDS011;45231;44.826;20.312;2023-02-23T01:06:15;81.28;;;50.38;;
59424;SDS011;45231;44.826;20.312;2023-02-23T01:08:42;86.25;;;56.13;;
59424;SDS011;45231;44.826;20.312;2023-02-23T01:11:13;88.20;;;55.42;;
59424;SDS011;45231;44.826;20.312;2023-02-23T01:13:40;84.65;;;54.83;;
59424;SDS011;45231;44.826;20.312;2023-02-23T01:16:10;84.35;;;52.08;;
59424;SDS011;45231;44.826;20.312;2023-02-23T01:18:37;76.10;;;50.67;;
59424;SDS011;45231;44.826;20.312;2023-02-23T01:23:30;75.85;;;47.90;;
59424;SDS011;45231;44.826;20.312;2023-02-23T01:25:57;74.28;;;48.42;;
59424;SDS011;45231;44.826;20.312;2023-02-23T01:28:23;75.72;;;48.45;;
59424;SDS011;45231;44.826;20.312;2023-02-23T01:30:49;79.05;;;50.15;;
59424;SDS011;45231;44.826;20.312;2023-02-23T01:33:15;83.25;;;49.97;;
59424;SDS011;45231;44.826;20.312;2023-02-23T01:36:05;79.65;;;50.28;;
59424;SDS011;45231;44.826;20.312;2023-02-23T01:38:30;76.70;;;48.25;;
59424;SDS011;45231;44.826;20.312;2023-02-23T01:40:56;81.45;;;51.95;;
59424;SDS011;45231;44.826;20.312;2023-02-23T01:43:23;92.47;;;50.67;;
59424;SDS011;45231;44.826;20.312;2023-02-23T01:45:55;78.78;;;49.20;;
59424;SDS011;45231;44.826;20.312;2023-02-23T01:48:25;77.82;;;48.25;;
59424;SDS011;45231;44.826;20.312;2023-02-23T01:51:07;73.65;;;49.38;;
59424;SDS011;45231;44.826;20.312;2023-02-23T01:53:35;74.82;;;49.30;;
59424;SDS011;45231;44.826;20.312;2023-02-23T01:56:10;75.63;;;49.75;;
59424;SDS011;45231;44.826;20.312;2023-02-23T01:58:40;73.97;;;46.80;;
59424;SDS011;45231;44.826;20.312;2023-02-23T02:01:08;74.72;;;46.70;;
59424;SDS011;45231;44.826;20.312;2023-02-23T02:03:37;70.32;;;46.60;;
59424;SDS011;45231;44.826;20.312;2023-02-23T02:06:04;74.90;;;46.78;;
59424;SDS011;45231;44.826;20.312;2023-02-23T02:08:33;76.55;;;46.88;;
59424;SDS011;45231;44.826;20.312;2023-02-23T02:11:13;66.20;;;45.92;;
59424;SDS011;45231;44.826;20.312;2023-02-23T02:24:51;76.95;;;49.92;;
59424;SDS011;45231;44.826;20.312;2023-02-23T02:27:26;72.68;;;48.55;;
59424;SDS011;45231;44.826;20.312;2023-02-23T02:38:17;78.20;;;49.75;;
59424;SDS011;45231;44.826;20.312;2023-02-23T02:40:45;79.78;;;49.90;;
59424;SDS011;45231;44.826;20.312;2023-02-23T02:46:00;75.70;;;48.72;;
59424;SDS011;45231;44.826;20.312;2023-02-23T02:50:57;72.93;;;47.47;;
59424;SDS011;45231;44.826;20.312;2023-02-23T02:53:29;78.55;;;50.10;;
59424;SDS011;45231;44.826;20.312;2023-02-23T02:55:58;74.82;;;48.78;;
59424;SDS011;45231;44.826;20.312;2023-02-23T02:58:29;72.05;;;47.78;;
59424;SDS011;45231;44.826;20.312;2023-02-23T03:01:03;71.45;;;47.70;;
59424;SDS011;45231;44.826;20.312;2023-02-23T03:03:48;74.05;;;48.10;;
59424;SDS011;45231;44.826;20.312;2023-02-23T03:06:38;74.68;;;46.20;;
59424;SDS011;45231;44.826;20.312;2023-02-23T03:12:36;67.82;;;44.65;;
59424;SDS011;45231;44.826;20.312;2023-02-23T03:15:38;68.05;;;45.13;;
59424;SDS011;45231;44.826;20.312;2023-02-23T03:21:37;66.13;;;43.97;;
59424;SDS011;45231;44.826;20.312;2023-02-23T03:30:02;73.93;;;45.80;;
59424;SDS011;45231;44.826;20.312;2023-02-23T03:32:51;68.72;;;45.33;;
59424;SDS011;45231;44.826;20.312;2023-02-23T03:35:54;71.45;;;46.13;;
59424;SDS011;45231;44.826;20.312;2023-02-23T03:41:25;69.43;;;45.95;;
59424;SDS011;45231;44.826;20.312;2023-02-23T03:44:29;67.15;;;43.67;;
59424;SDS011;45231;44.826;20.312;2023-02-23T03:47:15;69.55;;;45.50;;
59424;SDS011;45231;44.826;20.312;2023-02-23T03:50:02;72.60;;;46.28;;
59424;SDS011;45231;44.826;20.312;2023-02-23T03:52:49;71.20;;;45.47;;
59424;SDS011;45231;44.826;20.312;2023-02-23T03:58:22;71.07;;;45.38;;
59424;SDS011;45231;44.826;20.312;2023-02-23T04:01:09;72.07;;;46.70;;
59424;SDS011;45231;44.826;20.312;2023-02-23T04:03:54;71.00;;;46.60;;
59424;SDS011;45231;44.826;20.312;2023-02-23T04:06:41;73.10;;;46.22;;
59424;SDS011;45231;44.826;20.312;2023-02-23T04:09:27;75.10;;;46.80;;
59424;SDS011;45231;44.826;20.312;2023-02-23T04:12:13;73.22;;;45.88;;
59424;SDS011;45231;44.826;20.312;2023-02-23T04:15:00;68.63;;;44.38;;
59424;SDS011;45231;44.826;20.312;2023-02-23T04:17:29;75.90;;;47.03;;
59424;SDS011;45231;44.826;20.312;2023-02-23T04:19:56;68.82;;;45.70;;
59424;SDS011;45231;44.826;20.312;2023-02-23T04:22:22;75.53;;;44.13;;
59424;SDS011;45231;44.826;20.312;2023-02-23T04:24:48;73.93;;;44.05;;
59424;SDS011;45231;44.826;20.312;2023-02-23T04:27:15;64.10;;;42.73;;
59424;SDS011;45231;44.826;20.312;2023-02-23T04:29:41;68.75;;;42.75;;
59424;SDS011;45231;44.826;20.312;2023-02-23T04:32:11;76.20;;;43.28;;
59424;SDS011;45231;44.826;20.312;2023-02-23T04:34:38;70.28;;;43.92;;
59424;SDS011;45231;44.826;20.312;2023-02-23T04:37:05;68.95;;;42.03;;
59424;SDS011;45231;44.826;20.312;2023-02-23T04:39:31;65.77;;;42.90;;
59424;SDS011;45231;44.826;20.312;2023-02-23T04:41:57;67.03;;;41.33;;
59424;SDS011;45231;44.826;20.312;2023-02-23T04:44:23;64.60;;;41.38;;
59424;SDS011;45231;44.826;20.312;2023-02-23T04:46:49;67.03;;;42.57;;
59424;SDS011;45231;44.826;20.312;2023-02-23T04:49:15;69.43;;;44.27;;
59424;SDS011;45231;44.826;20.312;2023-02-23T04:51:41;69.73;;;45.33;;
59424;SDS011;45231;44.826;20.312;2023-02-23T04:54:08;73.73;;;44.63;;
59424;SDS011;45231;44.826;20.312;2023-02-23T04:56:34;67.88;;;42.00;;
59424;SDS011;45231;44.826;20.312;2023-02-23T04:59:00;73.73;;;45.20;;
59424;SDS011;45231;44.826;20.312;2023-02-23T05:01:29;66.63;;;42.00;;
59424;SDS011;45231;44.826;20.312;2023-02-23T05:03:56;72.95;;;42.17;;
59424;SDS011;45231;44.826;20.312;2023-02-23T05:06:24;60.53;;;39.65;;
59424;SDS011;45231;44.826;20.312;2023-02-23T05:08:50;64.47;;;40.75;;
59424;SDS011;45231;44.826;20.312;2023-02-23T05:11:16;62.47;;;41.33;;
59424;SDS011;45231;44.826;20.312;2023-02-23T05:13:43;64.83;;;40.90;;
59424;SDS011;45231;44.826;20.312;2023-02-23T05:16:09;69.70;;;42.63;;
59424;SDS011;45231;44.826;20.312;2023-02-23T05:18:35;70.60;;;43.15;;
59424;SDS011;45231;44.826;20.312;2023-02-23T05:21:05;76.50;;;42.23;;
59424;SDS011;45231;44.826;20.312;2023-02-23T05:23:32;78.78;;;43.40;;
59424;SDS011;45231;44.826;20.312;2023-02-23T05:26:06;71.70;;;42.45;;
59424;SDS011;45231;44.826;20.312;2023-02-23T05:28:33;68.35;;;41.60;;
59424;SDS011;45231;44.826;20.312;2023-02-23T05:31:00;74.90;;;43.78;;
59424;SDS011;45231;44.826;20.312;2023-02-23T05:33:28;66.47;;;41.42;;
59424;SDS011;45231;44.826;20.312;2023-02-23T05:35:54;65.30;;;41.97;;
59424;SDS011;45231;44.826;20.312;2023-02-23T05:38:21;66.78;;;40.53;;
59424;SDS011;45231;44.826;20.312;2023-02-23T05:40:47;67.65;;;42.50;;
59424;SDS011;45231;44.826;20.312;2023-02-23T05:43:13;68.77;;;41.93;;
59424;SDS011;45231;44.826;20.312;2023-02-23T05:45:40;68.47;;;43.20;;
59424;SDS011;45231;44.826;20.312;2023-02-23T05:48:07;68.85;;;41.55;;
59424;SDS011;45231;44.826;20.312;2023-02-23T05:50:33;64.72;;;43.45;;
59424;SDS011;45231;44.826;20.312;2023-02-23T05:52:59;73.27;;;45.80;;
59424;SDS011;45231;44.826;20.312;2023-02-23T05:55:25;69.23;;;44.67;;
59424;SDS011;45231;44.826;20.312;2023-02-23T05:57:52;70.30;;;42.80;;
59424;SDS011;45231;44.826;20.312;2023-02-23T06:00:18;70.45;;;44.83;;
59424;SDS011;45231;44.826;20.312;2023-02-23T06:02:45;70.95;;;45.42;;
59424;SDS011;45231;44.826;20.312;2023-02-23T06:05:11;64.73;;;45.30;;
59424;SDS011;45231;44.826;20.312;2023-02-23T06:07:38;68.25;;;42.95;;
59424;SDS011;45231;44.826;20.312;2023-02-23T06:10:04;65.22;;;43.72;;
59424;SDS011;45231;44.826;20.312;2023-02-23T06:12:31;64.78;;;43.00;;
59424;SDS011;45231;44.826;20.312;2023-02-23T06:14:57;56.43;;;41.97;;
59424;SDS011;45231;44.826;20.312;2023-02-23T06:17:23;55.93;;;40.67;;
59424;SDS011;45231;44.826;20.312;2023-02-23T06:19:49;54.95;;;37.80;;
59424;SDS011;45231;44.826;20.312;2023-02-23T06:22:15;54.10;;;36.88;;
59424;SDS011;45231;44.826;20.312;2023-02-23T06:24:42;47.58;;;35.88;;
59424;SDS011;45231;44.826;20.312;2023-02-23T06:27:08;48.72;;;34.60;;
59424;SDS011;45231;44.826;20.312;2023-02-23T06:29:36;45.80;;;33.40;;
59424;SDS011;45231;44.826;20.312;2023-02-23T06:32:02;54.83;;;35.00;;
59424;SDS011;45231;44.826;20.312;2023-02-23T06:34:29;46.28;;;34.03;;
59424;SDS011;45231;44.826;20.312;2023-02-23T06:36:55;44.90;;;33.42;;
59424;SDS011;45231;44.826;20.312;2023-02-23T06:39:21;47.20;;;34.13;;
59424;SDS011;45231;44.826;20.312;2023-02-23T06:41:47;42.13;;;31.95;;
59424;SDS011;45231;44.826;20.312;2023-02-23T06:44:13;40.72;;;32.22;;
59424;SDS011;45231;44.826;20.312;2023-02-23T06:46:39;41.35;;;32.40;;
59424;SDS011;45231;44.826;20.312;2023-02-23T06:49:05;43.47;;;32.80;;
59424;SDS011;45231;44.826;20.312;2023-02-23T06:51:31;46.50;;;34.08;;
59424;SDS011;45231;44.826;20.312;2023-02-23T06:53:57;41.60;;;33.97;;
59424;SDS011;45231;44.826;20.312;2023-02-23T06:56:23;46.03;;;33.30;;
59424;SDS011;45231;44.826;20.312;2023-02-23T06:58:49;45.65;;;33.95;;
59424;SDS011;45231;44.826;20.312;2023-02-23T07:01:15;46.85;;;37.00;;
59424;SDS011;45231;44.826;20.312;2023-02-23T07:03:43;47.65;;;36.10;;
59424;SDS011;45231;44.826;20.312;2023-02-23T07:06:20;46.53;;;38.22;;
59424;SDS011;45231;44.826;20.312;2023-02-23T07:08:46;46.38;;;36.78;;
59424;SDS011;45231;44.826;20.312;2023-02-23T07:11:13;41.45;;;35.83;;
59424;SDS011;45231;44.826;20.312;2023-02-23T07:13:40;45.20;;;35.28;;
59424;SDS011;45231;44.826;20.312;2023-02-23T07:16:07;40.97;;;34.33;;
59424;SDS011;45231;44.826;20.312;2023-02-23T07:18:41;43.75;;;34.45;;
59424;SDS011;45231;44.826;20.312;2023-02-23T07:21:10;48.17;;;38.45;;
59424;SDS011;45231;44.826;20.312;2023-02-23T07:23:36;50.75;;;37.85;;
59424;SDS011;45231;44.826;20.312;2023-02-23T07:26:02;44.28;;;35.92;;
59424;SDS011;45231;44.826;20.312;2023-02-23T07:28:28;42.35;;;34.47;;
59424;SDS011;45231;44.826;20.312;2023-02-23T07:30:55;47.40;;;36.65;;
59424;SDS011;45231;44.826;20.312;2023-02-23T07:35:48;49.03;;;37.60;;
59424;SDS011;45231;44.826;20.312;2023-02-23T07:38:14;50.00;;;38.97;;
59424;SDS011;45231;44.826;20.312;2023-02-23T07:40:40;50.28;;;37.55;;
59424;SDS011;45231;44.826;20.312;2023-02-23T07:43:06;50.40;;;38.75;;
59424;SDS011;45231;44.826;20.312;2023-02-23T07:45:33;44.08;;;35.35;;
59424;SDS011;45231;44.826;20.312;2023-02-23T07:47:59;40.67;;;33.47;;
59424;SDS011;45231;44.826;20.312;2023-02-23T07:50:25;39.28;;;31.60;;
59424;SDS011;45231;44.826;20.312;2023-02-23T07:52:51;39.22;;;32.15;;
59424;SDS011;45231;44.826;20.312;2023-02-23T07:55:17;36.67;;;32.20;;
59424;SDS011;45231;44.826;20.312;2023-02-23T08:00:09;42.78;;;34.97;;
59424;SDS011;45231;44.826;20.312;2023-02-23T08:02:36;39.80;;;34.92;;
59424;SDS011;45231;44.826;20.312;2023-02-23T08:05:02;36.00;;;31.85;;
59424;SDS011;45231;44.826;20.312;2023-02-23T08:09:54;35.08;;;30.73;;
59424;SDS011;45231;44.826;20.312;2023-02-23T08:14:46;38.90;;;30.90;;
59424;SDS011;45231;44.826;20.312;2023-02-23T08:19:38;37.63;;;30.02;;
59424;SDS011;45231;44.826;20.312;2023-02-23T08:24:30;32.60;;;27.02;;
59424;SDS011;45231;44.826;20.312;2023-02-23T08:29:23;29.20;;;24.15;;
59424;SDS011;45231;44.826;20.312;2023-02-23T08:31:49;29.15;;;25.83;;
59424;SDS011;45231;44.826;20.312;2023-02-23T08:34:16;30.52;;;21.05;;
59424;SDS011;45231;44.826;20.312;2023-02-23T08:36:42;24.27;;;19.33;;
59424;SDS011;45231;44.826;20.312;2023-02-23T08:39:09;31.27;;;28.02;;
59424;SDS011;45231;44.826;20.312;2023-02-23T08:41:36;24.92;;;20.20;;
59424;SDS011;45231;44.826;20.312;2023-02-23T08:44:02;33.65;;;19.92;;
59424;SDS011;45231;44.826;20.312;2023-02-23T08:48:54;25.92;;;17.58;;
59424;SDS011;45231;44.826;20.312;2023-02-23T08:51:21;23.80;;;18.23;;
59424;SDS011;45231;44.826;20.312;2023-02-23T08:53:47;26.65;;;17.20;;
59424;SDS011;45231;44.826;20.312;2023-02-23T08:56:13;23.10;;;17.58;;
59424;SDS011;45231;44.826;20.312;2023-02-23T08:58:40;20.35;;;17.27;;
59424;SDS011;45231;44.826;20.312;2023-02-23T09:01:06;22.67;;;18.67;;
59424;SDS011;45231;44.826;20.312;2023-02-23T09:03:33;24.38;;;19.23;;
59424;SDS011;45231;44.826;20.312;2023-02-23T09:06:07;24.00;;;19.92;;
59424;SDS011;45231;44.826;20.312;2023-02-23T09:08:34;24.08;;;19.00;;
59424;SDS011;45231;44.826;20.312;2023-02-23T09:11:00;22.70;;;20.23;;
59424;SDS011;45231;44.826;20.312;2023-02-23T09:15:52;23.02;;;18.48;;
59424;SDS011;45231;44.826;20.312;2023-02-23T09:18:19;15.00;;;10.50;;
59424;SDS011;45231;44.826;20.312;2023-02-23T09:20:48;14.27;;;11.07;;
59424;SDS011;45231;44.826;20.312;2023-02-23T09:23:14;15.68;;;13.30;;
59424;SDS011;45231;44.826;20.312;2023-02-23T09:25:41;17.50;;;13.77;;
59424;SDS011;45231;44.826;20.312;2023-02-23T09:28:08;18.00;;;14.85;;
59424;SDS011;45231;44.826;20.312;2023-02-23T09:30:36;15.77;;;10.70;;
59424;SDS011;45231;44.826;20.312;2023-02-23T09:33:02;16.00;;;11.52;;
59424;SDS011;45231;44.826;20.312;2023-02-23T09:35:28;15.75;;;10.95;;
59424;SDS011;45231;44.826;20.312;2023-02-23T09:38:00;15.93;;;12.30;;
59424;SDS011;45231;44.826;20.312;2023-02-23T09:40:28;19.85;;;14.32;;
59424;SDS011;45231;44.826;20.312;2023-02-23T09:43:30;14.13;;;10.80;;
59424;SDS011;45231;44.826;20.312;2023-02-23T09:48:32;15.35;;;11.10;;
59424;SDS011;45231;44.826;20.312;2023-02-23T09:50:59;18.17;;;11.10;;
59424;SDS011;45231;44.826;20.312;2023-02-23T09:58:22;18.02;;;12.40;;
59424;SDS011;45231;44.826;20.312;2023-02-23T10:03:35;18.40;;;12.10;;
59424;SDS011;45231;44.826;20.312;2023-02-23T10:06:05;15.40;;;11.52;;
59424;SDS011;45231;44.826;20.312;2023-02-23T10:08:40;17.05;;;10.63;;
59424;SDS011;45231;44.826;20.312;2023-02-23T10:11:22;15.65;;;11.27;;
59424;SDS011;45231;44.826;20.312;2023-02-23T10:21:33;14.73;;;7.63;;
59424;SDS011;45231;44.826;20.312;2023-02-23T10:24:16;10.25;;;7.10;;
59424;SDS011;45231;44.826;20.312;2023-02-23T10:26:46;11.10;;;7.10;;
59424;SDS011;45231;44.826;20.312;2023-02-23T10:29:22;13.45;;;8.18;;
59424;SDS011;45231;44.826;20.312;2023-02-23T10:31:53;21.48;;;14.10;;
59424;SDS011;45231;44.826;20.312;2023-02-23T10:34:21;11.48;;;8.68;;
59424;SDS011;45231;44.826;20.312;2023-02-23T10:39:17;14.68;;;7.97;;
59424;SDS011;45231;44.826;20.312;2023-02-23T10:41:43;16.08;;;8.95;;
59424;SDS011;45231;44.826;20.312;2023-02-23T10:44:20;15.80;;;10.93;;
59424;SDS011;45231;44.826;20.312;2023-02-23T10:46:54;15.07;;;11.57;;
59424;SDS011;45231;44.826;20.312;2023-02-23T10:49:21;21.70;;;11.93;;
59424;SDS011;45231;44.826;20.312;2023-02-23T10:51:49;17.48;;;11.43;;
59424;SDS011;45231;44.826;20.312;2023-02-23T10:57:02;18.50;;;12.70;;
59424;SDS011;45231;44.826;20.312;2023-02-23T10:59:28;11.52;;;8.20;;
59424;SDS011;45231;44.826;20.312;2023-02-23T11:01:54;18.40;;;11.27;;
59424;SDS011;45231;44.826;20.312;2023-02-23T11:04:22;19.45;;;12.13;;
59424;SDS011;45231;44.826;20.312;2023-02-23T11:06:48;16.33;;;12.00;;
59424;SDS011;45231;44.826;20.312;2023-02-23T11:12:02;17.02;;;11.60;;
59424;SDS011;45231;44.826;20.312;2023-02-23T11:14:32;18.88;;;12.43;;
59424;SDS011;45231;44.826;20.312;2023-02-23T11:16:58;20.25;;;13.38;;
59424;SDS011;45231;44.826;20.312;2023-02-23T11:21:55;19.55;;;13.55;;
59424;SDS011;45231;44.826;20.312;2023-02-23T11:24:43;20.10;;;14.55;;
59424;SDS011;45231;44.826;20.312;2023-02-23T11:27:17;30.35;;;15.63;;
59424;SDS011;45231;44.826;20.312;2023-02-23T11:29:45;23.35;;;16.77;;
59424;SDS011;45231;44.826;20.312;2023-02-23T11:32:16;23.85;;;16.08;;
59424;SDS011;45231;44.826;20.312;2023-02-23T11:34:43;23.50;;;16.65;;
59424;SDS011;45231;44.826;20.312;2023-02-23T11:39:52;11.63;;;5.90;;
59424;SDS011;45231;44.826;20.312;2023-02-23T11:42:20;17.35;;;10.40;;
59424;SDS011;45231;44.826;20.312;2023-02-23T11:45:05;17.02;;;12.13;;
59424;SDS011;45231;44.826;20.312;2023-02-23T11:47:32;14.57;;;10.30;;
59424;SDS011;45231;44.826;20.312;2023-02-23T11:49:59;19.63;;;12.65;;
59424;SDS011;45231;44.826;20.312;2023-02-23T11:52:26;19.48;;;11.35;;
59424;SDS011;45231;44.826;20.312;2023-02-23T11:57:19;16.10;;;11.82;;
59424;SDS011;45231;44.826;20.312;2023-02-23T11:59:46;17.05;;;12.68;;
59424;SDS011;45231;44.826;20.312;2023-02-23T12:02:23;19.35;;;14.50;;
59424;SDS011;45231;44.826;20.312;2023-02-23T12:04:51;17.45;;;12.50;;
59424;SDS011;45231;44.826;20.312;2023-02-23T12:09:44;19.10;;;12.80;;
59424;SDS011;45231;44.826;20.312;2023-02-23T12:12:16;17.80;;;10.93;;
59424;SDS011;45231;44.826;20.312;2023-02-23T12:14:50;13.32;;;10.48;;
59424;SDS011;45231;44.826;20.312;2023-02-23T12:19:46;14.75;;;9.27;;
59424;SDS011;45231;44.826;20.312;2023-02-23T12:22:17;16.85;;;11.40;;
59424;SDS011;45231;44.826;20.312;2023-02-23T12:25:03;19.63;;;12.90;;
59424;SDS011;45231;44.826;20.312;2023-02-23T12:27:32;17.27;;;11.75;;
59424;SDS011;45231;44.826;20.312;2023-02-23T12:30:04;19.02;;;12.30;;
59424;SDS011;45231;44.826;20.312;2023-02-23T12:35:01;21.30;;;12.95;;
59424;SDS011;45231;44.826;20.312;2023-02-23T12:37:44;19.52;;;12.07;;
59424;SDS011;45231;44.826;20.312;2023-02-23T12:40:20;15.98;;;11.95;;
59424;SDS011;45231;44.826;20.312;2023-02-23T12:45:42;19.35;;;13.00;;
59424;SDS011;45231;44.826;20.312;2023-02-23T12:50:49;16.73;;;12.75;;
59424;SDS011;45231;44.826;20.312;2023-02-23T12:58:43;16.65;;;12.02;;
59424;SDS011;45231;44.826;20.312;2023-02-23T13:01:16;16.52;;;12.98;;
59424;SDS011;45231;44.826;20.312;2023-02-23T13:09:01;17.45;;;11.57;;
59424;SDS011;45231;44.826;20.312;2023-02-23T13:11:36;16.13;;;10.48;;
59424;SDS011;45231;44.826;20.312;2023-02-23T13:16:39;19.67;;;11.18;;
59424;SDS011;45231;44.826;20.312;2023-02-23T13:24:38;14.70;;;10.27;;
59424;SDS011;45231;44.826;20.312;2023-02-23T13:27:12;13.63;;;9.88;;
59424;SDS011;45231;44.826;20.312;2023-02-23T13:29:41;15.18;;;10.18;;
59424;SDS011;45231;44.826;20.312;2023-02-23T13:32:12;14.60;;;10.77;;
59424;SDS011;45231;44.826;20.312;2023-02-23T13:34:53;14.63;;;9.95;;
59424;SDS011;45231;44.826;20.312;2023-02-23T13:37:21;15.02;;;9.90;;
59424;SDS011;45231;44.826;20.312;2023-02-23T13:42:28;14.43;;;10.68;;
59424;SDS011;45231;44.826;20.312;2023-02-23T13:52:42;20.17;;;11.52;;
59424;SDS011;45231;44.826;20.312;2023-02-23T13:58:05;17.00;;;12.20;;
59424;SDS011;45231;44.826;20.312;2023-02-23T14:00:37;16.58;;;11.68;;
59424;SDS011;45231;44.826;20.312;2023-02-23T14:03:03;17.50;;;11.32;;
59424;SDS011;45231;44.826;20.312;2023-02-23T14:05:30;19.65;;;12.30;;
59424;SDS011;45231;44.826;20.312;2023-02-23T14:08:06;16.63;;;10.82;;
59424;SDS011;45231;44.826;20.312;2023-02-23T14:10:42;14.82;;;11.30;;
59424;SDS011;45231;44.826;20.312;2023-02-23T14:20:45;18.42;;;11.50;;
59424;SDS011;45231;44.826;20.312;2023-02-23T14:25:50;15.50;;;11.15;;
59424;SDS011;45231;44.826;20.312;2023-02-23T14:28:25;16.02;;;11.35;;
59424;SDS011;45231;44.826;20.312;2023-02-23T14:43:58;15.75;;;10.93;;
59424;SDS011;45231;44.826;20.312;2023-02-23T14:46:29;17.15;;;11.68;;
59424;SDS011;45231;44.826;20.312;2023-02-23T14:56:53;15.85;;;11.07;;
59424;SDS011;45231;44.826;20.312;2023-02-23T14:59:23;16.98;;;10.82;;
59424;SDS011;45231;44.826;20.312;2023-02-23T15:01:51;16.63;;;10.45;;
59424;SDS011;45231;44.826;20.312;2023-02-23T15:04:22;16.65;;;10.52;;
59424;SDS011;45231;44.826;20.312;2023-02-23T15:06:51;16.98;;;10.25;;
59424;SDS011;45231;44.826;20.312;2023-02-23T15:09:22;16.17;;;9.85;;
59424;SDS011;45231;44.826;20.312;2023-02-23T15:11:50;16.42;;;10.00;;
59424;SDS011;45231;44.826;20.312;2023-02-23T15:14:18;19.30;;;10.23;;
59424;SDS011;45231;44.826;20.312;2023-02-23T15:16:45;19.25;;;11.20;;
59424;SDS011;45231;44.826;20.312;2023-02-23T15:19:16;15.15;;;9.27;;
59424;SDS011;45231;44.826;20.312;2023-02-23T15:21:49;15.60;;;9.90;;
59424;SDS011;45231;44.826;20.312;2023-02-23T15:24:20;14.00;;;9.77;;
59424;SDS011;45231;44.826;20.312;2023-02-23T15:26:48;15.07;;;9.23;;
59424;SDS011;45231;44.826;20.312;2023-02-23T15:29:16;16.67;;;10.45;;
59424;SDS011;45231;44.826;20.312;2023-02-23T15:31:43;16.75;;;11.15;;
59424;SDS011;45231;44.826;20.312;2023-02-23T15:34:15;17.42;;;11.23;;
59424;SDS011;45231;44.826;20.312;2023-02-23T15:36:44;16.90;;;11.50;;
59424;SDS011;45231;44.826;20.312;2023-02-23T15:39:13;18.10;;;10.98;;
59424;SDS011;45231;44.826;20.312;2023-02-23T15:41:41;18.70;;;11.07;;
59424;SDS011;45231;44.826;20.312;2023-02-23T15:46:40;19.45;;;11.98;;
59424;SDS011;45231;44.826;20.312;2023-02-23T15:49:08;21.90;;;12.27;;
59424;SDS011;45231;44.826;20.312;2023-02-23T15:51:36;18.52;;;11.05;;
59424;SDS011;45231;44.826;20.312;2023-02-23T15:54:16;16.45;;;11.05;;
59424;SDS011;45231;44.826;20.312;2023-02-23T15:56:46;17.80;;;11.35;;
59424;SDS011;45231;44.826;20.312;2023-02-23T15:59:17;16.63;;;10.70;;
59424;SDS011;45231;44.826;20.312;2023-02-23T16:01:44;16.98;;;10.88;;
59424;SDS011;45231;44.826;20.312;2023-02-23T16:06:38;18.80;;;10.60;;
59424;SDS011;45231;44.826;20.312;2023-02-23T16:09:20;16.67;;;11.00;;
59424;SDS011;45231;44.826;20.312;2023-02-23T16:14:34;16.55;;;10.35;;
59424;SDS011;45231;44.826;20.312;2023-02-23T16:17:09;18.73;;;11.52;;
59424;SDS011;45231;44.826;20.312;2023-02-23T16:19:38;19.98;;;10.75;;
59424;SDS011;45231;44.826;20.312;2023-02-23T16:22:05;22.33;;;11.02;;
59424;SDS011;45231;44.826;20.312;2023-02-23T16:24:32;17.58;;;11.80;;
59424;SDS011;45231;44.826;20.312;2023-02-23T16:27:00;15.52;;;10.90;;
59424;SDS011;45231;44.826;20.312;2023-02-23T16:32:00;20.38;;;12.60;;
59424;SDS011;45231;44.826;20.312;2023-02-23T16:34:34;20.90;;;12.10;;
59424;SDS011;45231;44.826;20.312;2023-02-23T16:37:15;23.92;;;12.82;;
59424;SDS011;45231;44.826;20.312;2023-02-23T16:39:42;23.55;;;12.60;;
59424;SDS011;45231;44.826;20.312;2023-02-23T16:44:50;27.38;;;16.67;;
59424;SDS011;45231;44.826;20.312;2023-02-23T16:49:49;39.17;;;23.33;;
59424;SDS011;45231;44.826;20.312;2023-02-23T16:52:18;25.45;;;12.90;;
59424;SDS011;45231;44.826;20.312;2023-02-23T16:54:46;22.17;;;11.52;;
59424;SDS011;45231;44.826;20.312;2023-02-23T16:57:23;21.17;;;11.35;;
59424;SDS011;45231;44.826;20.312;2023-02-23T16:59:50;19.40;;;11.02;;
59424;SDS011;45231;44.826;20.312;2023-02-23T17:04:43;20.88;;;11.07;;
59424;SDS011;45231;44.826;20.312;2023-02-23T17:07:13;18.08;;;9.95;;
59424;SDS011;45231;44.826;20.312;2023-02-23T17:09:44;20.33;;;10.75;;
59424;SDS011;45231;44.826;20.312;2023-02-23T17:12:13;22.65;;;11.93;;
59424;SDS011;45231;44.826;20.312;2023-02-23T17:14:42;24.27;;;11.38;;
59424;SDS011;45231;44.826;20.312;2023-02-23T17:17:12;28.20;;;12.25;;
59424;SDS011;45231;44.826;20.312;2023-02-23T17:19:38;30.40;;;12.60;;
59424;SDS011;45231;44.826;20.312;2023-02-23T17:22:05;22.20;;;11.50;;
59424;SDS011;45231;44.826;20.312;2023-02-23T17:24:37;19.13;;;10.50;;
59424;SDS011;45231;44.826;20.312;2023-02-23T17:27:04;19.27;;;11.65;;
59424;SDS011;45231;44.826;20.312;2023-02-23T17:29:30;24.80;;;13.05;;
59424;SDS011;45231;44.826;20.312;2023-02-23T17:31:56;23.13;;;12.95;;
59424;SDS011;45231;44.826;20.312;2023-02-23T17:34:27;29.27;;;14.05;;
59424;SDS011;45231;44.826;20.312;2023-02-23T17:36:53;23.48;;;13.43;;
59424;SDS011;45231;44.826;20.312;2023-02-23T17:39:19;21.33;;;12.80;;
59424;SDS011;45231;44.826;20.312;2023-02-23T17:41:46;24.45;;;13.70;;